sensor_id;sensor_type;location;lat;lon;timestamp;pressure;altitude;pressure_sealevel;temperature;humidity
67697;BME280;54486;51.442;6.778;2023-03-03T00:01:33;102173.25;;;2.28;93.57
67697;BME280;54486;51.442;6.778;2023-03-03T00:04:01;102167.22;;;2.27;94.06
67697;BME280;54486;51.442;6.778;2023-03-03T00:06:29;102155.16;;;2.26;93.71
67697;BME280;54486;51.442;6.778;2023-03-03T00:08:57;102172.34;;;2.27;93.78
67697;BME280;54486;51.442;6.778;2023-03-03T00:11:24;102166.41;;;2.28;93.22
67697;BME280;54486;51.442;6.778;2023-03-03T00:13:53;102165.63;;;2.29;93.44
67697;BME280;54486;51.442;6.778;2023-03-03T00:16:25;102175.75;;;2.26;93.38
67697;BME280;54486;51.442;6.778;2023-03-03T00:18:52;102175.75;;;2.26;93.33
67697;BME280;54486;51.442;6.778;2023-03-03T00:21:26;102182.66;;;2.27;93.32
67697;BME280;54486;51.442;6.778;2023-03-03T00:26:34;102185.25;;;2.27;93.25
67697;BME280;54486;51.442;6.778;2023-03-03T00:31:49;102189.28;;;2.22;94.00
67697;BME280;54486;51.442;6.778;2023-03-03T00:36:45;102186.34;;;2.32;93.09
67697;BME280;54486;51.442;6.778;2023-03-03T00:39:37;102184.28;;;2.25;93.86
67697;BME280;54486;51.442;6.778;2023-03-03T00:42:16;102192.16;;;2.28;93.40
67697;BME280;54486;51.442;6.778;2023-03-03T00:44:45;102205.03;;;2.28;93.07
67697;BME280;54486;51.442;6.778;2023-03-03T00:52:58;102205.03;;;2.28;93.48
67697;BME280;54486;51.442;6.778;2023-03-03T00:55:28;102196.50;;;2.29;94.14
67697;BME280;54486;51.442;6.778;2023-03-03T00:57:55;102195.69;;;2.30;93.46
67697;BME280;54486;51.442;6.778;2023-03-03T01:00:22;102207.75;;;2.31;93.07
67697;BME280;54486;51.442;6.778;2023-03-03T01:02:50;102197.41;;;2.30;92.77
67697;BME280;54486;51.442;6.778;2023-03-03T01:05:19;102200.53;;;2.24;93.35
67697;BME280;54486;51.442;6.778;2023-03-03T01:07:46;102197.22;;;2.27;93.67
67697;BME280;54486;51.442;6.778;2023-03-03T01:10:13;102203.06;;;2.23;93.16
67697;BME280;54486;51.442;6.778;2023-03-03T01:12:41;102206.53;;;2.23;93.48
67697;BME280;54486;51.442;6.778;2023-03-03T01:15:11;102201.53;;;2.26;93.83
67697;BME280;54486;51.442;6.778;2023-03-03T01:17:39;102200.78;;;2.29;93.83
67697;BME280;54486;51.442;6.778;2023-03-03T01:20:08;102205.94;;;2.29;93.44
67697;BME280;54486;51.442;6.778;2023-03-03T01:22:35;102201.38;;;2.23;93.06
67697;BME280;54486;51.442;6.778;2023-03-03T01:25:03;102201.22;;;2.20;92.83
67697;BME280;54486;51.442;6.778;2023-03-03T01:27:30;102197.66;;;2.18;92.58
67697;BME280;54486;51.442;6.778;2023-03-03T01:29:58;102209.59;;;2.16;93.21
67697;BME280;54486;51.442;6.778;2023-03-03T01:32:26;102206.88;;;2.13;93.10
67697;BME280;54486;51.442;6.778;2023-03-03T01:34:54;102201.56;;;2.10;93.32
67697;BME280;54486;51.442;6.778;2023-03-03T01:37:21;102209.59;;;2.16;93.55
67697;BME280;54486;51.442;6.778;2023-03-03T01:39:52;102209.44;;;2.13;93.35
67697;BME280;54486;51.442;6.778;2023-03-03T01:42:20;102208.13;;;2.21;93.28
67697;BME280;54486;51.442;6.778;2023-03-03T01:44:47;102195.75;;;2.14;93.88
67697;BME280;54486;51.442;6.778;2023-03-03T01:47:17;102201.72;;;2.13;93.60
67697;BME280;54486;51.442;6.778;2023-03-03T01:49:48;102204.59;;;2.19;93.43
67697;BME280;54486;51.442;6.778;2023-03-03T01:52:30;102202.97;;;2.21;93.90
67697;BME280;54486;51.442;6.778;2023-03-03T01:55:25;102206.19;;;2.17;93.25
67697;BME280;54486;51.442;6.778;2023-03-03T01:58:00;102205.19;;;2.13;93.24
67697;BME280;54486;51.442;6.778;2023-03-03T02:00:31;102202.66;;;2.15;92.90
67697;BME280;54486;51.442;6.778;2023-03-03T02:03:00;102206.19;;;2.17;93.13
67697;BME280;54486;51.442;6.778;2023-03-03T02:05:28;102199.28;;;2.16;93.46
67697;BME280;54486;51.442;6.778;2023-03-03T02:07:56;102197.47;;;2.13;92.93
67697;BME280;54486;51.442;6.778;2023-03-03T02:10:24;102188.84;;;2.13;93.37
67697;BME280;54486;51.442;6.778;2023-03-03T02:12:56;102191.44;;;2.13;93.44
67697;BME280;54486;51.442;6.778;2023-03-03T02:15:28;102192.22;;;2.12;93.11
67697;BME280;54486;51.442;6.778;2023-03-03T02:18:05;102188.69;;;2.10;93.72
67697;BME280;54486;51.442;6.778;2023-03-03T02:20:50;102180.97;;;2.10;93.47
67697;BME280;54486;51.442;6.778;2023-03-03T02:23:33;102187.72;;;2.08;93.02
67697;BME280;54486;51.442;6.778;2023-03-03T02:26:04;102180.69;;;2.04;93.68
67697;BME280;54486;51.442;6.778;2023-03-03T02:28:35;102186.78;;;2.06;93.21
67697;BME280;54486;51.442;6.778;2023-03-03T02:31:09;102190.44;;;2.11;93.51
67697;BME280;54486;51.442;6.778;2023-03-03T02:33:41;102190.44;;;2.11;93.32
67697;BME280;54486;51.442;6.778;2023-03-03T02:36:30;102192.06;;;2.09;93.48
67697;BME280;54486;51.442;6.778;2023-03-03T02:39:23;102199.56;;;2.04;93.35
67697;BME280;54486;51.442;6.778;2023-03-03T02:44:44;102218.25;;;2.00;93.91
67697;BME280;54486;51.442;6.778;2023-03-03T02:47:12;102210.28;;;1.96;93.78
67697;BME280;54486;51.442;6.778;2023-03-03T02:49:39;102198.06;;;1.92;93.94
67697;BME280;54486;51.442;6.778;2023-03-03T02:52:08;102205.88;;;1.93;94.13
67697;BME280;54486;51.442;6.778;2023-03-03T02:54:37;102213.34;;;1.89;93.96
67697;BME280;54486;51.442;6.778;2023-03-03T02:57:05;102203.06;;;1.89;93.90
67697;BME280;54486;51.442;6.778;2023-03-03T02:59:33;102201.47;;;1.91;94.41
67697;BME280;54486;51.442;6.778;2023-03-03T03:02:00;102209.19;;;1.91;93.83
67697;BME280;54486;51.442;6.778;2023-03-03T03:04:28;102218.34;;;1.86;93.76
67697;BME280;54486;51.442;6.778;2023-03-03T03:06:56;102214.66;;;1.81;94.21
67697;BME280;54486;51.442;6.778;2023-03-03T03:09:24;102216.44;;;1.82;94.10
67697;BME280;54486;51.442;6.778;2023-03-03T03:11:51;102213.78;;;1.80;94.52
67697;BME280;54486;51.442;6.778;2023-03-03T03:14:19;102205.97;;;1.79;94.30
67697;BME280;54486;51.442;6.778;2023-03-03T03:16:45;102210.97;;;1.76;94.41
67697;BME280;54486;51.442;6.778;2023-03-03T03:19:14;102214.66;;;1.81;93.81
67697;BME280;54486;51.442;6.778;2023-03-03T03:21:40;102222.88;;;1.74;93.81
67697;BME280;54486;51.442;6.778;2023-03-03T03:24:08;102218.47;;;1.71;94.59
67697;BME280;54486;51.442;6.778;2023-03-03T03:26:34;102234.78;;;1.72;94.26
67697;BME280;54486;51.442;6.778;2023-03-03T03:29:01;102224.50;;;1.72;94.41
67697;BME280;54486;51.442;6.778;2023-03-03T03:31:29;102232.84;;;1.68;94.34
67697;BME280;54486;51.442;6.778;2023-03-03T03:33:56;102240.47;;;1.66;94.98
67697;BME280;54486;51.442;6.778;2023-03-03T03:36:23;102239.53;;;1.64;94.61
67697;BME280;54486;51.442;6.778;2023-03-03T03:38:50;102233.59;;;1.65;94.92
67697;BME280;54486;51.442;6.778;2023-03-03T03:41:18;102236.06;;;1.64;94.67
67697;BME280;54486;51.442;6.778;2023-03-03T03:43:45;102246.50;;;1.67;94.90
67697;BME280;54486;51.442;6.778;2023-03-03T03:46:12;102232.84;;;1.68;94.58
67697;BME280;54486;51.442;6.778;2023-03-03T03:48:40;102222.72;;;1.71;94.91
67697;BME280;54486;51.442;6.778;2023-03-03T03:51:09;102229.69;;;1.73;94.54
67697;BME280;54486;51.442;6.778;2023-03-03T03:53:36;102227.28;;;1.76;94.75
67697;BME280;54486;51.442;6.778;2023-03-03T03:56:04;102228.31;;;1.80;94.49
67697;BME280;54486;51.442;6.778;2023-03-03T03:58:31;102231.88;;;1.82;94.56
67697;BME280;54486;51.442;6.778;2023-03-03T04:01:03;102240.56;;;1.84;93.83
67697;BME280;54486;51.442;6.778;2023-03-03T04:03:31;102243.19;;;1.85;94.28
67697;BME280;54486;51.442;6.778;2023-03-03T04:05:58;102241.50;;;1.86;94.04
67697;BME280;54486;51.442;6.778;2023-03-03T04:08:25;102239.25;;;1.92;94.17
67697;BME280;54486;51.442;6.778;2023-03-03T04:10:53;102246.09;;;1.91;93.73
67697;BME280;54486;51.442;6.778;2023-03-03T04:13:20;102242.94;;;1.97;93.94
67697;BME280;54486;51.442;6.778;2023-03-03T04:15:47;102244.97;;;1.86;94.04
67697;BME280;54486;51.442;6.778;2023-03-03T04:18:15;102249.38;;;1.89;94.03
67697;BME280;54486;51.442;6.778;2023-03-03T04:20:42;102249.22;;;1.86;94.07
67697;BME280;54486;51.442;6.778;2023-03-03T04:23:09;102247.47;;;1.85;93.60
67697;BME280;54486;51.442;6.778;2023-03-03T04:25:36;102239.66;;;1.83;94.00
67697;BME280;54486;51.442;6.778;2023-03-03T04:28:03;102243.19;;;1.85;94.28
67697;BME280;54486;51.442;6.778;2023-03-03T04:30:31;102233.31;;;1.77;93.81
67697;BME280;54486;51.442;6.778;2023-03-03T04:32:58;102238.47;;;1.77;94.10
67697;BME280;54486;51.442;6.778;2023-03-03T04:35:26;102233.31;;;1.77;94.13
67697;BME280;54486;51.442;6.778;2023-03-03T04:37:53;102236.38;;;1.70;94.06
67697;BME280;54486;51.442;6.778;2023-03-03T04:40:20;102239.78;;;1.69;94.00
67697;BME280;54486;51.442;6.778;2023-03-03T04:42:47;102237.84;;;1.65;94.26
67697;BME280;54486;51.442;6.778;2023-03-03T04:45:14;102238.00;;;1.68;94.75
67697;BME280;54486;51.442;6.778;2023-03-03T04:47:42;102245.06;;;1.72;94.59
67697;BME280;54486;51.442;6.778;2023-03-03T04:50:10;102238.94;;;1.70;94.15
67697;BME280;54486;51.442;6.778;2023-03-03T04:52:37;102241.69;;;1.73;94.27
67697;BME280;54486;51.442;6.778;2023-03-03T04:55:05;102245.22;;;1.75;94.69
67697;BME280;54486;51.442;6.778;2023-03-03T04:57:35;102251.97;;;1.73;94.07
67697;BME280;54486;51.442;6.778;2023-03-03T05:00:04;102255.28;;;1.70;94.21
67697;BME280;54486;51.442;6.778;2023-03-03T05:02:35;102253.91;;;1.77;94.57
67697;BME280;54486;51.442;6.778;2023-03-03T05:05:03;102255.69;;;1.78;94.70
67697;BME280;54486;51.442;6.778;2023-03-03T05:07:30;102247.13;;;1.79;94.26
67697;BME280;54486;51.442;6.778;2023-03-03T05:09:57;102250.53;;;1.78;94.50
67697;BME280;54486;51.442;6.778;2023-03-03T05:12:24;102247.88;;;1.76;94.34
67697;BME280;54486;51.442;6.778;2023-03-03T05:14:51;102251.81;;;1.70;94.46
67697;BME280;54486;51.442;6.778;2023-03-03T05:17:18;102249.91;;;1.66;95.03
67697;BME280;54486;51.442;6.778;2023-03-03T05:19:45;102246.66;;;1.70;94.91
67697;BME280;54486;51.442;6.778;2023-03-03T05:22:12;102254.22;;;1.67;94.99
67697;BME280;54486;51.442;6.778;2023-03-03T05:24:39;102251.03;;;1.71;94.40
67697;BME280;54486;51.442;6.778;2023-03-03T05:27:08;102250.88;;;1.68;94.34
67697;BME280;54486;51.442;6.778;2023-03-03T05:29:35;102251.66;;;1.67;94.26
67697;BME280;54486;51.442;6.778;2023-03-03T05:32:03;102250.97;;;1.69;94.89
67697;BME280;54486;51.442;6.778;2023-03-03T05:34:29;102249.91;;;1.66;94.09
67697;BME280;54486;51.442;6.778;2023-03-03T05:36:56;102244.75;;;1.66;93.97
67697;BME280;54486;51.442;6.778;2023-03-03T05:39:23;102248.44;;;1.71;94.17
67697;BME280;54486;51.442;6.778;2023-03-03T05:41:50;102253.75;;;1.74;94.06
67697;BME280;54486;51.442;6.778;2023-03-03T05:44:17;102253.59;;;1.71;93.55
67697;BME280;54486;51.442;6.778;2023-03-03T05:46:46;102255.22;;;1.69;94.07
67697;BME280;54486;51.442;6.778;2023-03-03T05:49:14;102250.22;;;1.72;93.88
67697;BME280;54486;51.442;6.778;2023-03-03T05:51:41;102260.53;;;1.72;93.79
67697;BME280;54486;51.442;6.778;2023-03-03T05:54:08;102264.69;;;1.70;94.27
67697;BME280;54486;51.442;6.778;2023-03-03T05:56:35;102260.34;;;1.69;93.94
67697;BME280;54486;51.442;6.778;2023-03-03T05:59:02;102267.25;;;1.70;93.47
67697;BME280;54486;51.442;6.778;2023-03-03T06:01:29;102262.09;;;1.70;93.80
67697;BME280;54486;51.442;6.778;2023-03-03T06:03:56;102265.81;;;1.75;94.03
67697;BME280;54486;51.442;6.778;2023-03-03T06:06:23;102264.03;;;1.74;93.23
67697;BME280;54486;51.442;6.778;2023-03-03T06:08:50;102265.50;;;1.69;94.01
67697;BME280;54486;51.442;6.778;2023-03-03T06:11:23;102261.41;;;1.72;93.53
67697;BME280;54486;51.442;6.778;2023-03-03T06:13:50;102270.66;;;1.69;93.88
67697;BME280;54486;51.442;6.778;2023-03-03T06:16:17;102263.88;;;1.71;93.27
67697;BME280;54486;51.442;6.778;2023-03-03T06:18:44;102272.72;;;1.76;93.53
67697;BME280;54486;51.442;6.778;2023-03-03T06:21:12;102278.75;;;1.76;92.83
67697;BME280;54486;51.442;6.778;2023-03-03T06:23:39;102280.44;;;1.76;92.45
67697;BME280;54486;51.442;6.778;2023-03-03T06:26:07;102293.41;;;1.77;92.69
67697;BME280;54486;51.442;6.778;2023-03-03T06:28:34;102293.44;;;1.79;92.98
67697;BME280;54486;51.442;6.778;2023-03-03T06:31:01;102300.53;;;1.83;93.02
67697;BME280;54486;51.442;6.778;2023-03-03T06:33:28;102292.03;;;1.84;92.45
67697;BME280;54486;51.442;6.778;2023-03-03T06:35:56;102308.34;;;1.84;92.80
67697;BME280;54486;51.442;6.778;2023-03-03T06:38:26;102306.00;;;1.89;93.04
67697;BME280;54486;51.442;6.778;2023-03-03T06:40:53;102305.31;;;1.91;92.85
67697;BME280;54486;51.442;6.778;2023-03-03T06:43:20;102297.81;;;1.96;92.36
67697;BME280;54486;51.442;6.778;2023-03-03T06:45:47;102307.78;;;1.90;92.11
67697;BME280;54486;51.442;6.778;2023-03-03T06:48:14;102304.72;;;1.97;92.01
67697;BME280;54486;51.442;6.778;2023-03-03T06:50:42;102310.03;;;2.00;91.44
67697;BME280;54486;51.442;6.778;2023-03-03T06:53:14;102311.81;;;2.01;91.45
67697;BME280;54486;51.442;6.778;2023-03-03T06:55:41;102319.53;;;2.01;90.96
67697;BME280;54486;51.442;6.778;2023-03-03T07:00:42;102325.00;;;2.07;90.66
67697;BME280;54486;51.442;6.778;2023-03-03T07:03:16;102323.94;;;2.03;90.91
67697;BME280;54486;51.442;6.778;2023-03-03T07:05:43;102333.56;;;2.07;90.83
67697;BME280;54486;51.442;6.778;2023-03-03T07:08:17;102329.47;;;2.11;90.03
67697;BME280;54486;51.442;6.778;2023-03-03T07:10:46;102334.78;;;2.14;89.75
67697;BME280;54486;51.442;6.778;2023-03-03T07:13:22;102332.34;;;2.17;89.98
67697;BME280;54486;51.442;6.778;2023-03-03T07:15:51;102331.41;;;2.15;89.56
67697;BME280;54486;51.442;6.778;2023-03-03T07:18:28;102328.19;;;2.19;89.63
67697;BME280;54486;51.442;6.778;2023-03-03T07:20:59;102329.47;;;2.11;89.39
67697;BME280;54486;51.442;6.778;2023-03-03T07:23:39;102334.78;;;2.14;89.22
67697;BME280;54486;51.442;6.778;2023-03-03T07:26:13;102328.84;;;2.15;88.96
67697;BME280;54486;51.442;6.778;2023-03-03T07:28:43;102342.03;;;2.21;89.58
67697;BME280;54486;51.442;6.778;2023-03-03T07:31:30;102340.44;;;2.23;88.85
67697;BME280;54486;51.442;6.778;2023-03-03T07:34:00;102346.69;;;2.28;88.84
67697;BME280;54486;51.442;6.778;2023-03-03T07:36:34;102345.41;;;2.20;89.18
67697;BME280;54486;51.442;6.778;2023-03-03T07:39:10;102349.00;;;2.24;89.05
67697;BME280;54486;51.442;6.778;2023-03-03T07:41:41;102351.69;;;2.25;89.31
67697;BME280;54486;51.442;6.778;2023-03-03T07:44:21;102354.41;;;2.28;88.50
67697;BME280;54486;51.442;6.778;2023-03-03T07:46:50;102363.19;;;2.32;88.95
67697;BME280;54486;51.442;6.778;2023-03-03T07:49:34;102361.81;;;2.38;88.39
67697;BME280;54486;51.442;6.778;2023-03-03T07:52:28;102363.75;;;2.42;88.97
67697;BME280;54486;51.442;6.778;2023-03-03T07:54:59;102363.59;;;2.39;89.06
67697;BME280;54486;51.442;6.778;2023-03-03T07:57:35;102372.47;;;2.46;88.20
67697;BME280;54486;51.442;6.778;2023-03-03T08:02:46;102375.25;;;2.49;88.12
67697;BME280;54486;51.442;6.778;2023-03-03T08:05:34;102379.50;;;2.48;88.01
67697;BME280;54486;51.442;6.778;2023-03-03T08:10:47;102384.31;;;2.58;87.73
67697;BME280;54486;51.442;6.778;2023-03-03T08:16:17;102394.09;;;2.65;87.32
67697;BME280;54486;51.442;6.778;2023-03-03T08:18:48;102389.09;;;2.68;87.53
67697;BME280;54486;51.442;6.778;2023-03-03T08:21:21;102392.97;;;2.77;87.24
67697;BME280;54486;51.442;6.778;2023-03-03T08:23:49;102391.34;;;2.79;86.96
67697;BME280;54486;51.442;6.778;2023-03-03T08:26:20;102384.59;;;2.81;87.05
67697;BME280;54486;51.442;6.778;2023-03-03T08:28:48;102391.47;;;2.82;87.49
67697;BME280;54486;51.442;6.778;2023-03-03T08:31:15;102390.44;;;2.78;87.13
67697;BME280;54486;51.442;6.778;2023-03-03T08:34:00;102403.28;;;2.77;86.67
67697;BME280;54486;51.442;6.778;2023-03-03T08:36:27;102396.50;;;2.79;87.44
67697;BME280;54486;51.442;6.778;2023-03-03T08:38:54;102396.03;;;2.70;87.12
67697;BME280;54486;51.442;6.778;2023-03-03T08:41:21;102404.56;;;2.68;86.89
67697;BME280;54486;51.442;6.778;2023-03-03T08:43:48;102402.81;;;2.67;87.05
67697;BME280;54486;51.442;6.778;2023-03-03T08:46:15;102408.13;;;2.71;87.60
67697;BME280;54486;51.442;6.778;2023-03-03T08:48:42;102414.22;;;2.73;87.21
67697;BME280;54486;51.442;6.778;2023-03-03T08:51:09;102409.31;;;2.77;86.64
67697;BME280;54486;51.442;6.778;2023-03-03T08:53:36;102410.19;;;2.78;86.66
67697;BME280;54486;51.442;6.778;2023-03-03T08:56:04;102406.16;;;2.83;86.46
67697;BME280;54486;51.442;6.778;2023-03-03T08:58:33;102410.97;;;2.93;86.32
67697;BME280;54486;51.442;6.778;2023-03-03T09:01:03;102416.47;;;3.00;86.75
67697;BME280;54486;51.442;6.778;2023-03-03T09:03:30;102416.56;;;3.02;86.78
67697;BME280;54486;51.442;6.778;2023-03-03T09:05:58;102408.59;;;2.97;85.95
67697;BME280;54486;51.442;6.778;2023-03-03T09:08:24;102415.63;;;3.00;86.46
67697;BME280;54486;51.442;6.778;2023-03-03T09:10:52;102413.03;;;3.00;85.72
67697;BME280;54486;51.442;6.778;2023-03-03T09:13:19;102419.78;;;2.98;86.36
67697;BME280;54486;51.442;6.778;2023-03-03T09:15:47;102444.28;;;3.06;85.81
67697;BME280;54486;51.442;6.778;2023-03-03T09:20:47;102432.63;;;3.14;86.23
67697;BME280;54486;51.442;6.778;2023-03-03T09:23:39;102437.78;;;3.14;85.55
67697;BME280;54486;51.442;6.778;2023-03-03T09:31:43;102437.34;;;3.22;85.55
67697;BME280;54486;51.442;6.778;2023-03-03T09:36:42;102429.25;;;3.33;85.09
67697;BME280;54486;51.442;6.778;2023-03-03T09:45:07;102435.75;;;3.42;85.54
67697;BME280;54486;51.442;6.778;2023-03-03T09:56:33;102447.63;;;3.56;84.29
67697;BME280;54486;51.442;6.778;2023-03-03T09:59:23;102455.78;;;3.65;84.58
67697;BME280;54486;51.442;6.778;2023-03-03T10:05:30;102450.00;;;3.89;83.44
67697;BME280;54486;51.442;6.778;2023-03-03T10:16:10;102456.50;;;3.81;82.43
67697;BME280;54486;51.442;6.778;2023-03-03T10:18:49;102453.78;;;3.78;83.06
67697;BME280;54486;51.442;6.778;2023-03-03T10:21:29;102460.06;;;3.83;82.59
67697;BME280;54486;51.442;6.778;2023-03-03T10:29:20;102463.88;;;3.91;83.07
67697;BME280;54486;51.442;6.778;2023-03-03T10:32:02;102460.78;;;3.98;82.69
67697;BME280;54486;51.442;6.778;2023-03-03T10:37:29;102464.97;;;4.15;81.91
67697;BME280;54486;51.442;6.778;2023-03-03T10:40:20;102463.38;;;4.17;81.68
67697;BME280;54486;51.442;6.778;2023-03-03T10:49:25;102473.56;;;4.14;81.54
67697;BME280;54486;51.442;6.778;2023-03-03T10:52:08;102468.53;;;4.17;81.42
67697;BME280;54486;51.442;6.778;2023-03-03T11:06:01;102470.75;;;4.09;80.81
67697;BME280;54486;51.442;6.778;2023-03-03T11:11:58;102467.78;;;4.19;81.54
67697;BME280;54486;51.442;6.778;2023-03-03T11:17:47;102468.97;;;4.26;80.55
67697;BME280;54486;51.442;6.778;2023-03-03T11:20:33;102460.41;;;4.27;81.03
67697;BME280;54486;51.442;6.778;2023-03-03T11:23:31;102463.66;;;4.23;80.51
67697;BME280;54486;51.442;6.778;2023-03-03T11:31:54;102455.75;;;4.58;80.68
67697;BME280;54486;51.442;6.778;2023-03-03T11:35:04;102459.63;;;4.68;79.99
67697;BME280;54486;51.442;6.778;2023-03-03T11:37:53;102453.63;;;4.88;79.70
67697;BME280;54486;51.442;6.778;2023-03-03T11:40:26;102453.63;;;5.09;79.20
67697;BME280;54486;51.442;6.778;2023-03-03T11:43:26;102450.09;;;5.07;77.71
67697;BME280;54486;51.442;6.778;2023-03-03T11:46:17;102451.03;;;5.09;77.56
67697;BME280;54486;51.442;6.778;2023-03-03T11:49:03;102443.53;;;5.15;77.27
67697;BME280;54486;51.442;6.778;2023-03-03T11:54:37;102440.13;;;5.16;76.94
67697;BME280;54486;51.442;6.778;2023-03-03T12:06:26;102430.06;;;5.44;75.16
67697;BME280;54486;51.442;6.778;2023-03-03T12:36:14;102409.69;;;6.20;72.44
67697;BME280;54486;51.442;6.778;2023-03-03T12:39:00;102413.25;;;6.22;72.65
67697;BME280;54486;51.442;6.778;2023-03-03T12:41:31;102411.59;;;6.24;72.56
67697;BME280;54486;51.442;6.778;2023-03-03T12:46:50;102412.50;;;6.50;71.68
67697;BME280;54486;51.442;6.778;2023-03-03T12:49:20;102403.97;;;6.52;71.37
67697;BME280;54486;51.442;6.778;2023-03-03T12:52:14;102405.72;;;6.53;70.59
67697;BME280;54486;51.442;6.778;2023-03-03T13:05:33;102411.34;;;6.65;69.74
67697;BME280;54486;51.442;6.778;2023-03-03T13:08:36;102411.44;;;6.68;69.20
67697;BME280;54486;51.442;6.778;2023-03-03T13:17:00;102402.53;;;6.60;69.31
67697;BME280;54486;51.442;6.778;2023-03-03T13:19:39;102394.19;;;6.45;69.46
67697;BME280;54486;51.442;6.778;2023-03-03T13:22:28;102405.63;;;6.50;69.82
67697;BME280;54486;51.442;6.778;2023-03-03T13:25:05;102392.56;;;6.47;69.87
67697;BME280;54486;51.442;6.778;2023-03-03T13:27:39;102393.59;;;6.52;69.18
67697;BME280;54486;51.442;6.778;2023-03-03T13:35:29;102381.44;;;6.51;70.18
67697;BME280;54486;51.442;6.778;2023-03-03T13:38:01;102377.31;;;6.56;69.79
67697;BME280;54486;51.442;6.778;2023-03-03T13:40:39;102382.19;;;6.72;70.15
67697;BME280;54486;51.442;6.778;2023-03-03T13:43:14;102385.59;;;6.71;69.12
67697;BME280;54486;51.442;6.778;2023-03-03T13:52:07;102372.41;;;6.90;68.26
67697;BME280;54486;51.442;6.778;2023-03-03T14:00:02;102364.72;;;7.47;67.06
67697;BME280;54486;51.442;6.778;2023-03-03T14:13:53;102348.97;;;9.33;62.26
67697;BME280;54486;51.442;6.778;2023-03-03T14:16:38;102347.09;;;9.65;59.59
67697;BME280;54486;51.442;6.778;2023-03-03T14:21:56;102346.84;;;9.95;58.49
67697;BME280;54486;51.442;6.778;2023-03-03T14:24:30;102338.94;;;9.90;58.86
67697;BME280;54486;51.442;6.778;2023-03-03T14:26:58;102340.00;;;10.00;58.52
67697;BME280;54486;51.442;6.778;2023-03-03T14:31:55;102336.53;;;9.59;58.44
67697;BME280;54486;51.442;6.778;2023-03-03T14:36:50;102329.50;;;8.80;59.10
67697;BME280;54486;51.442;6.778;2023-03-03T14:39:32;102331.03;;;9.08;60.81
67697;BME280;54486;51.442;6.778;2023-03-03T14:42:00;102335.75;;;9.26;59.76
67697;BME280;54486;51.442;6.778;2023-03-03T14:44:31;102328.19;;;9.35;58.83
67697;BME280;54486;51.442;6.778;2023-03-03T14:47:10;102325.06;;;9.14;58.73
67697;BME280;54486;51.442;6.778;2023-03-03T14:49:39;102325.06;;;9.14;59.48
67697;BME280;54486;51.442;6.778;2023-03-03T14:52:28;102318.59;;;9.34;59.53
67697;BME280;54486;51.442;6.778;2023-03-03T14:54:57;102313.72;;;9.49;59.08
67697;BME280;54486;51.442;6.778;2023-03-03T15:07:48;102298.16;;;10.91;54.12
67697;BME280;54486;51.442;6.778;2023-03-03T15:10:37;102292.44;;;11.13;55.66
67697;BME280;54486;51.442;6.778;2023-03-03T15:18:29;102290.50;;;11.63;52.52
67697;BME280;54486;51.442;6.778;2023-03-03T15:21:04;102285.03;;;12.17;52.14
67697;BME280;54486;51.442;6.778;2023-03-03T15:28:44;102277.69;;;12.72;50.65
67697;BME280;54486;51.442;6.778;2023-03-03T15:31:30;102266.19;;;12.55;50.00
67697;BME280;54486;51.442;6.778;2023-03-03T15:34:17;102270.75;;;12.83;48.97
67697;BME280;54486;51.442;6.778;2023-03-03T15:45:26;102252.97;;;11.60;51.27
67697;BME280;54486;51.442;6.778;2023-03-03T15:51:02;102255.09;;;11.24;52.20
67697;BME280;54486;51.442;6.778;2023-03-03T15:53:46;102259.94;;;10.96;52.67
67697;BME280;54486;51.442;6.778;2023-03-03T15:56:40;102254.69;;;10.93;53.26
67697;BME280;54486;51.442;6.778;2023-03-03T16:02:28;102251.81;;;10.24;55.01
67697;BME280;54486;51.442;6.778;2023-03-03T16:08:12;102263.13;;;9.38;57.47
67697;BME280;54486;51.442;6.778;2023-03-03T16:19:44;102266.56;;;8.62;60.57
67697;BME280;54486;51.442;6.778;2023-03-03T16:25:49;102266.41;;;8.23;62.49
67697;BME280;54486;51.442;6.778;2023-03-03T16:31:17;102259.75;;;8.02;63.75
67697;BME280;54486;51.442;6.778;2023-03-03T16:33:51;102262.03;;;7.89;64.44
67697;BME280;54486;51.442;6.778;2023-03-03T16:39:04;102260.78;;;7.75;64.86
67697;BME280;54486;51.442;6.778;2023-03-03T16:41:50;102267.41;;;7.64;65.37
67697;BME280;54486;51.442;6.778;2023-03-03T16:44:44;102277.53;;;7.55;66.19
67697;BME280;54486;51.442;6.778;2023-03-03T16:50:11;102270.13;;;7.39;65.89
67697;BME280;54486;51.442;6.778;2023-03-03T16:52:48;102280.25;;;7.30;66.06
67697;BME280;54486;51.442;6.778;2023-03-03T16:55:37;102282.16;;;7.09;67.37
67697;BME280;54486;51.442;6.778;2023-03-03T16:58:24;102288.13;;;7.05;67.55
67697;BME280;54486;51.442;6.778;2023-03-03T17:01:16;102287.13;;;7.01;67.47
67697;BME280;54486;51.442;6.778;2023-03-03T17:09:32;102295.88;;;6.76;68.16
67697;BME280;54486;51.442;6.778;2023-03-03T17:12:39;102297.41;;;6.71;68.75
67697;BME280;54486;51.442;6.778;2023-03-03T17:20:55;102303.44;;;6.45;69.21
67697;BME280;54486;51.442;6.778;2023-03-03T17:36:17;102321.88;;;5.81;72.40
67697;BME280;54486;51.442;6.778;2023-03-03T17:47:07;102321.53;;;5.49;73.42
67697;BME280;54486;51.442;6.778;2023-03-03T17:52:21;102326.97;;;5.34;74.34
67697;BME280;54486;51.442;6.778;2023-03-03T17:58:05;102339.25;;;5.17;75.35
67697;BME280;54486;51.442;6.778;2023-03-03T18:00:53;102334.84;;;5.15;75.39
67697;BME280;54486;51.442;6.778;2023-03-03T18:06:38;102338.09;;;5.09;74.91
67697;BME280;54486;51.442;6.778;2023-03-03T18:12:03;102346.75;;;5.10;75.49
67697;BME280;54486;51.442;6.778;2023-03-03T18:15:02;102339.66;;;5.06;75.89
67697;BME280;54486;51.442;6.778;2023-03-03T18:20:13;102344.97;;;5.09;76.70
67697;BME280;54486;51.442;6.778;2023-03-03T18:22:48;102336.41;;;5.10;76.74
67697;BME280;54486;51.442;6.778;2023-03-03T18:25:50;102349.72;;;5.20;76.17
67697;BME280;54486;51.442;6.778;2023-03-03T18:28:19;102342.72;;;5.18;76.95
67697;BME280;54486;51.442;6.778;2023-03-03T18:31:31;102350.72;;;5.24;76.74
67697;BME280;54486;51.442;6.778;2023-03-03T18:34:28;102350.13;;;5.29;76.14